createdAt,value
2024-04-15T00:03:26.708Z,93.50
2024-04-15T00:08:31.422Z,93.81
2024-04-15T00:13:36.099Z,94.31
2024-04-15T00:18:41.540Z,92.67
2024-04-15T00:23:46.251Z,93.76
2024-04-15T00:28:50.933Z,93.35
2024-04-15T00:33:58.072Z,94.12
2024-04-15T00:39:02.853Z,95.89
2024-04-15T00:44:07.814Z,96.58
2024-04-15T00:49:14.517Z,95.41
2024-04-15T00:54:19.523Z,97.94
2024-04-15T00:59:25.286Z,97.09
2024-04-15T01:04:30.106Z,97.98
2024-04-15T01:09:34.836Z,100.00
2024-04-15T01:14:39.505Z,99.28
2024-04-15T01:19:44.232Z,97.65
2024-04-15T01:24:52.707Z,96.99
2024-04-15T01:29:57.577Z,96.98
2024-04-15T01:35:02.285Z,95.85
2024-04-15T01:40:07.375Z,96.59
2024-04-15T01:45:12.521Z,95.91
2024-04-15T01:50:21.424Z,96.30
2024-04-15T01:55:26.096Z,93.79
2024-04-15T02:00:30.820Z,94.63
2024-04-15T02:05:35.524Z,93.68
2024-04-15T02:10:40.265Z,91.22
2024-04-15T02:15:45.447Z,91.41
2024-04-15T02:20:50.156Z,92.56
2024-04-15T02:25:54.884Z,92.10
2024-04-15T02:30:59.666Z,92.52
2024-04-15T02:36:04.411Z,93.31
2024-04-15T02:41:09.114Z,93.54
2024-04-15T02:46:14.137Z,93.40
2024-04-15T02:51:18.924Z,94.42
2024-04-15T02:56:23.637Z,93.99
2024-04-15T03:01:28.401Z,93.01
2024-04-15T03:06:33.153Z,93.81
2024-04-15T03:11:38.644Z,93.29
2024-04-15T03:16:43.876Z,94.00
2024-04-15T03:21:48.652Z,92.56
2024-04-15T03:26:53.457Z,92.53
2024-04-15T03:31:58.175Z,94.45
2024-04-15T03:37:02.954Z,94.50
2024-04-15T03:42:07.823Z,94.24
2024-04-15T03:47:12.873Z,96.00
2024-04-15T03:52:17.734Z,96.22
2024-04-15T03:57:22.655Z,96.81
2024-04-15T04:02:27.578Z,100.00
2024-04-15T04:07:32.436Z,99.64
2024-04-15T04:12:37.168Z,98.19
2024-04-15T04:17:41.986Z,98.02
2024-04-15T04:22:46.739Z,99.11
2024-04-15T04:27:51.433Z,100.00
2024-04-15T04:32:56.752Z,100.00
2024-04-15T04:38:01.735Z,100.00
2024-04-15T04:43:06.830Z,100.00
2024-04-15T04:48:11.948Z,99.75
2024-04-15T04:53:17.140Z,100.00
2024-04-15T04:58:21.853Z,100.00
2024-04-15T05:03:26.622Z,98.89
2024-04-15T05:08:31.344Z,100.00
2024-04-15T05:13:36.567Z,100.00
2024-04-15T05:18:44.843Z,100.00
2024-04-15T05:23:50.421Z,99.31
2024-04-15T05:28:55.168Z,97.02
2024-04-15T05:34:00.017Z,96.68
2024-04-15T05:39:04.704Z,100.00
2024-04-15T05:44:09.543Z,100.00
2024-04-15T05:49:14.290Z,100.00
2024-04-15T05:54:19.048Z,100.00
2024-04-15T05:59:23.978Z,99.84
2024-04-15T06:04:28.813Z,97.62
2024-04-15T06:09:33.587Z,94.14
2024-04-15T06:14:38.400Z,87.68
2024-04-15T06:19:43.116Z,84.67
2024-04-15T06:24:48.446Z,79.51
2024-04-15T06:29:53.404Z,76.90
2024-04-15T06:34:58.086Z,77.23
2024-04-15T06:40:02.777Z,73.87
2024-04-15T06:45:07.758Z,70.21
2024-04-15T06:50:13.397Z,65.17
2024-04-15T06:55:18.342Z,64.25
2024-04-15T07:00:23.215Z,61.54
2024-04-15T07:05:28.138Z,58.39
2024-04-15T07:10:33.303Z,58.09
2024-04-15T07:15:38.124Z,59.77
2024-04-15T07:20:42.801Z,53.54
2024-04-15T07:25:48.040Z,54.50
2024-04-15T07:31:02.741Z,52.59
2024-04-15T07:36:10.481Z,49.31
2024-04-15T07:41:15.191Z,48.11
2024-04-15T07:46:22.316Z,47.40
2024-04-15T07:51:30.844Z,48.41
2024-04-15T07:56:38.065Z,45.34
2024-04-15T08:01:44.755Z,46.20
2024-04-15T08:06:59.971Z,44.76
2024-04-15T08:12:12.829Z,45.06
2024-04-15T08:17:17.726Z,44.50
2024-04-15T08:22:23.883Z,44.86
2024-04-15T08:27:28.656Z,43.67
2024-04-15T08:32:33.517Z,43.49
2024-04-15T08:37:38.259Z,43.39
2024-04-15T08:42:49.080Z,43.51
2024-04-15T08:47:57.226Z,40.95
2024-04-15T08:53:02.078Z,40.54
2024-04-15T08:58:07.809Z,40.63
2024-04-15T09:03:14.107Z,40.99
2024-04-15T09:08:18.864Z,40.48
2024-04-15T09:13:23.594Z,40.70
2024-04-15T09:18:29.025Z,38.42
2024-04-15T09:23:36.124Z,37.84
2024-04-15T09:28:40.893Z,37.62
2024-04-15T09:33:46.379Z,37.90
2024-04-15T09:38:52.890Z,36.58
2024-04-15T09:43:58.484Z,36.11
2024-04-15T09:49:07.741Z,37.16
2024-04-15T09:54:14.431Z,35.37
2024-04-15T09:59:19.997Z,35.80
2024-04-15T10:04:25.651Z,34.55
2024-04-15T10:09:31.033Z,34.22
2024-04-15T10:14:36.811Z,35.45
2024-04-15T10:19:44.044Z,33.85
2024-04-15T10:24:48.809Z,34.21
2024-04-15T10:29:54.018Z,33.56
2024-04-15T10:35:00.575Z,33.90
2024-04-15T10:40:07.665Z,34.94
2024-04-15T10:45:21.333Z,34.28
2024-04-15T10:50:26.678Z,34.88
2024-04-15T10:55:31.476Z,33.65
2024-04-15T11:00:37.333Z,34.11
2024-04-15T11:05:42.034Z,33.17
2024-04-15T11:10:47.584Z,33.10
2024-04-15T11:15:56.416Z,32.10
2024-04-15T11:21:04.996Z,32.15
2024-04-15T11:26:16.875Z,31.43
2024-04-15T11:31:21.711Z,32.60
2024-04-15T11:36:26.621Z,31.14
2024-04-15T11:41:31.324Z,31.08
2024-04-15T11:46:36.142Z,28.90
2024-04-15T11:51:40.864Z,32.04
2024-04-15T11:56:45.771Z,33.52
2024-04-15T12:01:50.637Z,32.31
2024-04-15T12:06:56.337Z,32.31
2024-04-15T12:12:01.052Z,33.92
2024-04-15T12:17:07.630Z,32.51
2024-04-15T12:22:12.416Z,32.69
2024-04-15T12:27:17.600Z,32.48
2024-04-15T12:32:22.407Z,32.16
2024-04-15T12:37:27.205Z,33.17
2024-04-15T12:42:31.915Z,33.40
2024-04-15T12:47:38.373Z,32.54
2024-04-15T12:52:43.158Z,32.92
2024-04-15T12:57:47.948Z,33.35
2024-04-15T13:02:52.732Z,32.46
2024-04-15T13:07:57.679Z,31.96
2024-04-15T13:13:02.383Z,31.56
2024-04-15T13:18:07.512Z,32.52
2024-04-15T13:23:13.567Z,31.39
2024-04-15T13:28:18.356Z,31.99
2024-04-15T13:33:23.281Z,31.11
2024-04-15T13:38:29.269Z,30.62
2024-04-15T13:43:34.139Z,30.33
2024-04-15T13:48:39.178Z,30.57
2024-04-15T13:53:43.901Z,30.38
2024-04-15T13:58:48.661Z,30.59
2024-04-15T14:03:54.225Z,30.06
2024-04-15T14:08:59.344Z,30.44
2024-04-15T14:14:04.215Z,31.32
2024-04-15T14:19:09.283Z,32.39
2024-04-15T14:24:14.605Z,38.12
2024-04-15T14:29:22.617Z,39.30
2024-04-15T14:34:28.765Z,43.28
2024-04-15T14:39:33.500Z,43.27
2024-04-15T14:44:38.320Z,43.59
2024-04-15T14:49:43.154Z,45.11
2024-04-15T14:54:47.915Z,47.52
2024-04-15T14:59:54.332Z,48.51
2024-04-15T15:04:59.201Z,49.55
2024-04-15T15:10:04.673Z,50.57
2024-04-15T15:15:09.721Z,51.97
2024-04-15T15:20:14.563Z,52.28
2024-04-15T15:25:19.441Z,52.38
2024-04-15T15:30:24.306Z,53.95
2024-04-15T15:35:29.018Z,52.62
2024-04-15T15:40:33.813Z,52.51
2024-04-15T15:45:38.622Z,53.11
2024-04-15T15:50:43.289Z,53.51
2024-04-15T15:55:49.523Z,54.69
2024-04-15T16:00:54.337Z,56.41
2024-04-15T16:05:59.239Z,57.49
2024-04-15T16:11:03.995Z,57.58
2024-04-15T16:16:09.177Z,58.80
2024-04-15T16:21:14.295Z,59.97
2024-04-15T16:26:19.410Z,59.42
2024-04-15T16:31:24.454Z,60.18
2024-04-15T16:36:30.140Z,61.60
2024-04-15T16:41:34.865Z,60.40
2024-04-15T16:46:39.924Z,60.39
2024-04-15T16:51:44.595Z,61.66
2024-04-15T16:56:49.366Z,63.17
2024-04-15T17:01:54.210Z,64.46
2024-04-15T17:06:59.072Z,66.27
2024-04-15T17:12:03.906Z,67.92
2024-04-15T17:17:11.892Z,71.07
2024-04-15T17:22:17.243Z,69.61
2024-04-15T17:27:22.163Z,67.68
2024-04-15T17:32:30.008Z,65.07
2024-04-15T17:37:35.169Z,62.55
2024-04-15T17:42:41.157Z,61.00
2024-04-15T17:47:46.560Z,60.45
2024-04-15T17:52:51.389Z,60.15
2024-04-15T17:57:58.620Z,60.39
2024-04-15T18:03:04.870Z,62.22
2024-04-15T18:08:11.004Z,63.03
2024-04-15T18:13:15.808Z,64.82
2024-04-15T18:18:20.665Z,64.36
2024-04-15T18:23:25.465Z,64.29
2024-04-15T18:28:30.305Z,64.52
2024-04-15T18:33:35.387Z,63.97
2024-04-15T18:38:40.189Z,64.66
2024-04-15T18:43:44.932Z,64.22
2024-04-15T18:48:49.714Z,65.12
2024-04-15T18:53:54.456Z,63.70
2024-04-15T18:58:59.291Z,65.03
2024-04-15T19:04:04.395Z,64.41
2024-04-15T19:09:09.307Z,64.89
2024-04-15T19:14:15.180Z,65.85
2024-04-15T19:19:20.027Z,66.76
2024-04-15T19:24:24.812Z,66.21
2024-04-15T19:29:29.784Z,67.34
2024-04-15T19:34:34.568Z,69.02
2024-04-15T19:39:39.807Z,66.70
2024-04-15T19:44:44.767Z,66.64
2024-04-15T19:49:49.555Z,66.59
2024-04-15T19:54:54.484Z,67.85
2024-04-15T19:59:59.324Z,68.89
2024-04-15T20:05:04.189Z,69.59
2024-04-15T20:10:09.213Z,70.49
2024-04-15T20:15:14.077Z,71.32
2024-04-15T20:20:21.390Z,70.93
2024-04-15T20:25:26.167Z,71.92
2024-04-15T20:30:30.940Z,73.85
2024-04-15T20:35:35.832Z,72.27
2024-04-15T20:40:41.597Z,71.75
2024-04-15T20:45:50.092Z,72.59
2024-04-15T20:50:54.871Z,74.29
2024-04-15T20:56:00.283Z,74.18
2024-04-15T21:01:07.611Z,75.10
2024-04-15T21:06:12.466Z,75.54
2024-04-15T21:11:17.271Z,75.79
2024-04-15T21:16:22.441Z,76.13
2024-04-15T21:21:27.239Z,76.54
2024-04-15T21:26:32.074Z,76.06
2024-04-15T21:31:36.898Z,75.56
2024-04-15T21:36:41.658Z,76.18
2024-04-15T21:41:46.434Z,75.07
2024-04-15T21:46:51.266Z,75.15
2024-04-15T21:51:55.989Z,74.92
2024-04-15T21:57:02.125Z,74.07
2024-04-15T22:02:07.312Z,75.35
2024-04-15T22:07:12.070Z,77.57
2024-04-15T22:12:16.838Z,79.52
2024-04-15T22:17:21.730Z,79.31
2024-04-15T22:22:26.697Z,81.22
2024-04-15T22:27:31.522Z,81.07
2024-04-15T22:32:36.333Z,82.09
2024-04-15T22:37:41.099Z,81.14
2024-04-15T22:42:45.875Z,78.76
2024-04-15T22:47:50.656Z,77.91
2024-04-15T22:52:55.862Z,77.29
2024-04-15T22:58:00.702Z,78.02
2024-04-15T23:03:05.511Z,77.79
2024-04-15T23:08:10.546Z,80.42
2024-04-15T23:13:15.314Z,77.53
2024-04-15T23:18:20.280Z,80.08
2024-04-15T23:23:25.168Z,83.25
2024-04-15T23:28:32.486Z,81.10
2024-04-15T23:33:37.796Z,82.14
2024-04-15T23:38:43.623Z,84.42
2024-04-15T23:43:48.449Z,82.50
2024-04-15T23:49:12.126Z,81.78
2024-04-15T23:54:35.665Z,81.98
2024-04-15T23:59:59.328Z,78.97
